Time;durP1;ratioP1;P1;durP2;ratioP2;P2;SDS_P1;SDS_P2;PMS_P1;PMS_P2;Temp;Humidity;BMP_temperature;BMP_pressure;BME280_temperature;BME280_humidity;BME280_pressure;Samples;Min_cycle;Max_cycle;Signal;HPM_P1;HPM_P2
2021/05/30 00:01:55;;;;;;;5.82;2.10;;;;;;;20.13;43.02;100888.72;5070918;28;20051;-67
2021/05/30 00:04:22;;;;;;;3.22;1.75;;;;;;;19.95;43.40;100891.81;5070698;28;20143;-67
2021/05/30 00:06:50;;;;;;;4.57;2.05;;;;;;;20.04;43.45;100892.47;5070677;28;20119;-67
2021/05/30 00:09:18;;;;;;;2.90;1.42;;;;;;;20.12;43.38;100887.84;5070692;28;20079;-67
2021/05/30 00:11:45;;;;;;;4.00;2.20;;;;;;;20.13;43.48;100891.41;5071613;28;20056;-66
2021/05/30 00:14:12;;;;;;;4.30;2.00;;;;;;;20.07;43.64;100886.19;5070860;28;20033;-67
2021/05/30 00:16:39;;;;;;;4.68;1.70;;;;;;;20.05;43.45;100875.50;5070635;28;20486;-67
2021/05/30 00:19:06;;;;;;;2.72;2.05;;;;;;;20.03;43.43;100885.34;5069195;28;20128;-67
2021/05/30 00:21:33;;;;;;;2.65;1.60;;;;;;;19.98;43.60;100873.84;5069930;28;20120;-67
2021/05/30 00:24:01;;;;;;;2.60;1.67;;;;;;;19.97;43.41;100871.19;5068923;28;20093;-67
2021/05/30 00:26:29;;;;;;;4.57;1.95;;;;;;;19.90;43.40;100868.66;5070285;28;20675;-67
2021/05/30 00:28:56;;;;;;;4.65;1.80;;;;;;;19.86;43.32;100875.00;5070402;28;20036;-67
2021/05/30 00:31:23;;;;;;;2.45;1.77;;;;;;;19.93;43.04;100873.06;5070724;28;20116;-67
2021/05/30 00:33:50;;;;;;;2.05;1.60;;;;;;;19.86;43.18;100868.75;5070000;28;20040;-67
2021/05/30 00:36:17;;;;;;;2.80;2.15;;;;;;;19.66;43.68;100866.47;5070721;28;20124;-67
2021/05/30 00:38:44;;;;;;;2.53;1.55;;;;;;;19.57;43.91;100853.25;5070656;28;20572;-67
2021/05/30 00:41:11;;;;;;;3.28;1.92;;;;;;;19.65;43.97;100854.00;5070021;28;20098;-67
2021/05/30 00:43:47;;;;;;;5.97;2.15;;;;;;;19.78;43.55;100847.47;5069897;28;20526;-66
2021/05/30 00:46:14;;;;;;;2.80;1.60;;;;;;;19.83;43.33;100844.69;5070038;28;20132;-66
2021/05/30 00:48:42;;;;;;;4.90;1.90;;;;;;;19.86;43.21;100852.69;5070068;28;20515;-66
2021/05/30 00:51:09;;;;;;;5.40;1.63;;;;;;;19.90;43.21;100849.88;5070326;28;20119;-67
2021/05/30 00:53:37;;;;;;;3.10;2.05;;;;;;;19.95;43.08;100844.44;5070096;28;20125;-67
2021/05/30 00:56:05;;;;;;;6.45;2.13;;;;;;;19.96;43.01;100845.31;5068070;28;20625;-67
2021/05/30 00:58:33;;;;;;;4.70;1.70;;;;;;;19.63;43.69;100845.09;5069671;28;20123;-67
2021/05/30 01:01:01;;;;;;;4.13;1.70;;;;;;;19.65;43.75;100847.75;5069498;28;20040;-67
2021/05/30 01:03:28;;;;;;;3.75;1.73;;;;;;;19.71;43.53;100850.31;5068565;28;20119;-67
2021/05/30 01:05:56;;;;;;;3.25;1.58;;;;;;;19.80;43.31;100844.78;5070239;28;20120;-67
2021/05/30 01:08:27;;;;;;;2.45;1.77;;;;;;;19.71;43.39;100848.50;5069620;28;20174;-67
2021/05/30 01:10:55;;;;;;;2.88;1.70;;;;;;;19.58;43.73;100835.41;5069395;28;20043;-66
2021/05/30 01:13:23;;;;;;;3.95;1.60;;;;;;;19.60;43.58;100830.91;5069710;28;20040;-67
2021/05/30 01:15:51;;;;;;;3.90;1.80;;;;;;;19.47;43.84;100830.28;5069256;28;20036;-67
2021/05/30 01:18:21;;;;;;;3.65;1.60;;;;;;;19.40;44.08;100828.59;5069690;28;20630;-67
2021/05/30 01:20:49;;;;;;;5.13;2.10;;;;;;;19.40;43.80;100821.44;5068529;28;20040;-67
2021/05/30 01:23:18;;;;;;;2.95;1.65;;;;;;;19.33;44.10;100830.50;5069932;28;20540;-67
2021/05/30 01:25:45;;;;;;;3.38;1.90;;;;;;;19.22;44.44;100828.94;5069569;28;20101;-67
2021/05/30 01:28:13;;;;;;;3.33;1.90;;;;;;;19.22;44.72;100826.28;5069509;28;20433;-67
2021/05/30 01:30:40;;;;;;;7.47;2.00;;;;;;;19.33;44.45;100825.16;5069448;28;20124;-67
2021/05/30 01:33:07;;;;;;;3.35;1.77;;;;;;;19.48;44.24;100818.66;5069572;28;20389;-67
2021/05/30 01:35:34;;;;;;;2.63;1.58;;;;;;;19.56;44.01;100814.00;5068135;28;20060;-67
2021/05/30 01:38:01;;;;;;;4.75;2.25;;;;;;;19.61;43.72;100809.44;5069129;28;20041;-67
2021/05/30 01:40:30;;;;;;;3.55;1.88;;;;;;;19.51;44.16;100805.19;5069535;28;20131;-67
2021/05/30 01:42:57;;;;;;;3.63;1.60;;;;;;;19.36;44.54;100809.00;5068754;28;20131;-66
2021/05/30 01:45:28;;;;;;;4.43;2.35;;;;;;;19.21;44.92;100805.75;5069405;28;20056;-67
2021/05/30 01:47:55;;;;;;;3.70;1.60;;;;;;;19.25;44.80;100802.97;5069544;28;20045;-67
2021/05/30 01:50:25;;;;;;;2.33;1.55;;;;;;;19.37;44.42;100804.53;5068610;28;20036;-67
2021/05/30 01:52:52;;;;;;;2.40;1.58;;;;;;;19.44;44.10;100806.19;5069240;28;20112;-66
2021/05/30 01:55:24;;;;;;;3.63;1.70;;;;;;;19.49;44.00;100804.34;5067920;28;20051;-66
2021/05/30 01:57:52;;;;;;;3.08;2.05;;;;;;;19.34;44.23;100813.53;5068326;28;20082;-67
2021/05/30 02:00:20;;;;;;;2.92;2.10;;;;;;;19.23;44.57;100811.97;5069462;28;20037;-67
2021/05/30 02:02:51;;;;;;;3.85;1.90;;;;;;;19.24;44.71;100811.03;5069315;28;20455;-67
2021/05/30 02:05:18;;;;;;;3.03;1.98;;;;;;;19.28;44.45;100802.94;5069240;28;20111;-66
2021/05/30 02:07:47;;;;;;;4.35;1.45;;;;;;;19.33;44.15;100803.72;5068915;28;20132;-67
2021/05/30 02:10:15;;;;;;;3.03;2.00;;;;;;;19.31;44.04;100805.53;5068719;28;20041;-67
2021/05/30 02:12:46;;;;;;;3.53;1.58;;;;;;;19.30;44.03;100810.91;5068825;28;20494;-67
2021/05/30 02:15:17;;;;;;;5.13;1.90;;;;;;;19.21;44.03;100801.28;5069320;28;20040;-67
2021/05/30 02:17:44;;;;;;;3.63;1.77;;;;;;;19.10;44.33;100796.13;5069092;28;20040;-67
2021/05/30 02:20:14;;;;;;;3.22;1.98;;;;;;;19.15;44.11;100803.19;5069101;28;20039;-66
2021/05/30 02:22:41;;;;;;;4.40;2.05;;;;;;;19.16;43.85;100805.84;5068436;28;20125;-67
2021/05/30 02:25:11;;;;;;;4.72;1.70;;;;;;;19.20;43.94;100817.38;5068791;28;20144;-67
2021/05/30 02:27:38;;;;;;;2.95;1.90;;;;;;;19.21;43.99;100816.47;5068630;28;20040;-66
2021/05/30 02:30:07;;;;;;;7.65;2.15;;;;;;;18.96;44.42;100816.03;5068958;28;20047;-67
2021/05/30 02:32:35;;;;;;;6.32;1.80;;;;;;;18.83;44.96;100810.03;5068044;28;20449;-66
2021/05/30 02:35:03;;;;;;;2.17;1.50;;;;;;;18.81;45.09;100814.50;5069145;28;20052;-66
2021/05/30 02:37:30;;;;;;;3.92;1.80;;;;;;;18.86;45.13;100831.34;5068582;28;20153;-67
2021/05/30 02:39:57;;;;;;;3.20;1.70;;;;;;;18.89;44.92;100833.09;5068740;28;20036;-67
2021/05/30 02:42:24;;;;;;;5.22;1.60;;;;;;;19.01;44.35;100835.56;5068453;28;20036;-66
2021/05/30 02:44:51;;;;;;;2.63;1.58;;;;;;;19.03;44.09;100841.78;5068486;28;20041;-67
2021/05/30 02:47:18;;;;;;;3.97;1.70;;;;;;;18.95;44.13;100849.94;5068576;28;20167;-66
2021/05/30 02:49:46;;;;;;;3.13;1.70;;;;;;;18.89;44.27;100860.75;5068331;28;20119;-66
2021/05/30 02:52:13;;;;;;;3.58;1.50;;;;;;;18.99;43.92;100869.47;5068312;28;20037;-67
2021/05/30 02:54:40;;;;;;;5.55;1.95;;;;;;;18.92;43.94;100882.09;5068573;28;20456;-67
2021/05/30 02:57:08;;;;;;;2.92;1.70;;;;;;;18.89;43.81;100876.81;5068396;28;20076;-67
2021/05/30 02:59:35;;;;;;;3.35;1.73;;;;;;;18.95;43.66;100882.03;5068327;28;20135;-67
2021/05/30 03:02:02;;;;;;;5.53;2.10;;;;;;;18.99;43.48;100878.41;5068120;28;20072;-66
2021/05/30 03:04:29;;;;;;;5.90;2.17;;;;;;;18.93;43.49;100875.81;5068890;28;20119;-66
2021/05/30 03:06:58;;;;;;;2.78;1.48;;;;;;;19.00;43.44;100869.47;5068795;28;20094;-67
2021/05/30 03:09:25;;;;;;;5.60;1.95;;;;;;;18.97;43.39;100869.50;5071155;28;20098;-66
2021/05/30 03:11:52;;;;;;;4.43;1.85;;;;;;;18.76;43.92;100875.22;5070664;28;20044;-66
2021/05/30 03:14:19;;;;;;;2.47;1.38;;;;;;;18.82;44.12;100872.47;5072140;28;20148;-66
2021/05/30 03:16:46;;;;;;;6.03;1.92;;;;;;;18.90;43.84;100875.91;5072192;28;20041;-66
2021/05/30 03:19:13;;;;;;;7.18;2.40;;;;;;;19.04;43.35;100865.81;5071810;28;20094;-67
2021/05/30 03:21:40;;;;;;;9.70;2.38;;;;;;;19.11;43.15;100863.91;5071307;28;20131;-67
2021/05/30 03:24:10;;;;;;;2.55;1.77;;;;;;;18.92;43.74;100874.06;5072298;28;20131;-67
2021/05/30 03:26:37;;;;;;;3.85;1.40;;;;;;;18.77;44.38;100874.34;5071775;28;20124;-67
2021/05/30 03:29:04;;;;;;;5.85;1.80;;;;;;;18.89;44.17;100870.56;5071549;28;20036;-67
2021/05/30 03:31:31;;;;;;;4.55;2.00;;;;;;;19.07;43.95;100863.09;5071719;28;20743;-66
2021/05/30 03:33:58;;;;;;;2.97;1.52;;;;;;;19.07;43.68;100864.88;5072084;28;20040;-66
2021/05/30 03:36:26;;;;;;;4.47;1.80;;;;;;;19.10;43.86;100867.50;5068948;28;20174;-66
2021/05/30 03:39:00;;;;;;;6.47;1.55;;;;;;;19.26;43.70;100870.78;5071250;28;20025;-67
2021/05/30 03:41:32;;;;;;;;;;;;;;;19.42;43.60;100874.97;5072373;28;20045;-66
2021/05/30 03:44:00;;;;;;;4.22;1.70;;;;;;;19.62;43.48;100870.16;5071473;28;20418;-67
2021/05/30 03:46:28;;;;;;;2.42;1.70;;;;;;;19.79;43.26;100881.41;5071240;28;20033;-66
2021/05/30 03:48:55;;;;;;;3.92;2.05;;;;;;;19.96;43.38;100885.50;5071473;28;20128;-67
2021/05/30 03:51:22;;;;;;;4.50;2.05;;;;;;;19.96;43.57;100880.16;5070905;28;20047;-66
2021/05/30 03:53:49;;;;;;;2.75;1.73;;;;;;;20.07;43.87;100879.03;5071618;28;20115;-67
2021/05/30 03:56:17;;;;;;;3.53;1.50;;;;;;;20.29;43.70;100880.31;5056021;28;20555;-66
2021/05/30 03:58:45;;;;;;;4.70;2.05;;;;;;;20.55;43.35;100879.75;5071034;28;20500;-66
2021/05/30 04:01:12;;;;;;;3.35;1.65;;;;;;;20.73;43.21;100883.81;5069931;28;20128;-67
2021/05/30 04:03:39;;;;;;;4.28;1.63;;;;;;;20.82;43.26;100878.19;5070609;28;20527;-67
2021/05/30 04:06:06;;;;;;;4.45;1.40;;;;;;;20.80;43.35;100879.16;5071482;28;20125;-66
2021/05/30 04:08:33;;;;;;;5.88;1.67;;;;;;;20.84;43.31;100878.16;5071473;28;20029;-67
2021/05/30 04:11:00;;;;;;;4.07;1.88;;;;;;;20.88;43.04;100883.41;5070047;28;20131;-67
2021/05/30 04:13:27;;;;;;;2.85;1.70;;;;;;;20.88;42.89;100890.56;5069657;28;20124;-67
2021/05/30 04:15:56;;;;;;;1.88;1.55;;;;;;;20.84;43.05;100894.25;5070472;28;20123;-67
2021/05/30 04:18:24;;;;;;;5.38;2.00;;;;;;;20.93;43.32;100900.31;5070104;28;20074;-66
2021/05/30 04:20:51;;;;;;;4.63;2.05;;;;;;;20.95;43.14;100902.94;5070581;28;20059;-66
2021/05/30 04:23:18;;;;;;;4.97;1.58;;;;;;;20.89;43.28;100895.03;5071174;28;20049;-67
2021/05/30 04:25:45;;;;;;;5.07;2.40;;;;;;;20.89;43.40;100890.53;5070287;28;20040;-67
2021/05/30 04:28:12;;;;;;;3.75;1.67;;;;;;;21.01;43.41;100908.13;5070792;28;20044;-67
2021/05/30 04:30:39;;;;;;;9.13;2.08;;;;;;;21.17;43.26;100917.63;5070326;28;20540;-67
2021/05/30 04:33:07;;;;;;;4.78;1.92;;;;;;;21.34;43.07;100920.75;5070295;28;20547;-67
2021/05/30 04:35:34;;;;;;;5.85;2.00;;;;;;;21.50;43.09;100920.34;5070263;28;20065;-66
2021/05/30 04:38:01;;;;;;;5.45;1.45;;;;;;;21.88;42.54;100918.38;5070698;28;20041;-67
2021/05/30 04:40:28;;;;;;;2.63;1.70;;;;;;;22.17;42.41;100922.94;5070030;28;20079;-67
2021/05/30 04:42:55;;;;;;;3.22;1.58;;;;;;;22.36;41.89;100917.00;5059429;28;20080;-66
2021/05/30 04:45:22;;;;;;;3.55;1.80;;;;;;;22.30;41.63;100926.16;5063148;28;20037;-66
2021/05/30 04:47:49;;;;;;;3.13;1.65;;;;;;;22.32;42.14;100929.66;5069511;28;20119;-67
2021/05/30 04:50:17;;;;;;;4.03;1.98;;;;;;;22.37;42.30;100934.91;5067814;28;20072;-67
2021/05/30 04:52:44;;;;;;;2.90;1.73;;;;;;;22.71;42.39;100921.31;5067093;28;20503;-67
2021/05/30 04:55:12;;;;;;;4.10;1.60;;;;;;;23.14;41.32;100924.38;5066763;28;20435;-66
2021/05/30 04:57:40;;;;;;;5.50;1.58;;;;;;;23.31;40.76;100924.69;5054830;28;20416;-67
2021/05/30 05:00:08;;;;;;;3.85;2.15;;;;;;;24.01;39.97;100924.91;5053534;28;20041;-66
2021/05/30 05:02:36;;;;;;;3.40;1.60;;;;;;;24.66;39.35;100929.63;5050529;28;20033;-66
2021/05/30 05:05:04;;;;;;;4.95;1.33;;;;;;;25.07;38.90;100929.78;5052144;28;20453;-66
2021/05/30 05:07:32;;;;;;;4.03;1.60;;;;;;;25.10;39.98;100926.94;5069262;28;20032;-67
2021/05/30 05:09:59;;;;;;;4.35;1.63;;;;;;;25.29;40.52;100926.09;5050292;28;20033;-67
2021/05/30 05:12:26;;;;;;;4.47;1.65;;;;;;;25.59;40.80;100928.47;5066459;28;20044;-67
2021/05/30 05:14:54;;;;;;;5.50;1.40;;;;;;;25.99;40.94;100935.72;5069247;28;20128;-67
2021/05/30 05:17:22;;;;;;;5.18;1.70;;;;;;;25.84;41.65;100947.22;5050151;28;20496;-67
2021/05/30 05:19:49;;;;;;;4.57;1.45;;;;;;;25.70;42.20;100953.22;5061476;28;20055;-67
2021/05/30 05:22:17;;;;;;;7.18;1.95;;;;;;;25.80;42.77;100951.84;5062683;28;20048;-67
2021/05/30 05:24:45;;;;;;;5.15;1.58;;;;;;;25.88;43.13;100951.53;5069196;28;20048;-67
2021/05/30 05:27:12;;;;;;;7.78;2.10;;;;;;;25.66;43.88;100957.03;5059363;28;20626;-67
2021/05/30 05:29:39;;;;;;;7.00;1.65;;;;;;;25.53;44.12;100962.06;5061690;28;20500;-67
2021/05/30 05:32:07;;;;;;;3.28;1.40;;;;;;;25.40;44.65;100964.38;5059089;28;20044;-66
2021/05/30 05:34:33;;;;;;;2.58;1.48;;;;;;;25.25;45.14;100962.34;5068539;28;20116;-67
2021/05/30 05:37:00;;;;;;;4.35;1.60;;;;;;;25.07;45.21;100955.00;5068383;28;20064;-67
2021/05/30 05:39:27;;;;;;;3.42;1.38;;;;;;;24.94;45.20;100919.47;5068333;28;20039;-66
2021/05/30 05:41:56;;;;;;;4.18;1.90;;;;;;;24.86;45.81;100916.19;5068526;28;20052;-67
2021/05/30 05:44:24;;;;;;;7.20;1.85;;;;;;;24.80;46.03;100915.56;5069124;28;20047;-67
2021/05/30 05:46:51;;;;;;;5.57;1.75;;;;;;;24.59;46.20;100933.50;5068754;28;20040;-67
2021/05/30 05:49:18;;;;;;;6.20;2.03;;;;;;;24.50;46.55;100967.13;5068629;28;20880;-66
2021/05/30 05:51:45;;;;;;;3.60;1.52;;;;;;;24.53;46.89;100966.13;5068290;28;20131;-67
2021/05/30 05:54:12;;;;;;;4.35;1.63;;;;;;;24.65;46.02;100956.66;5068388;28;20098;-66
2021/05/30 05:56:39;;;;;;;3.47;1.63;;;;;;;24.83;45.33;100961.34;5067708;28;20052;-66
2021/05/30 05:59:07;;;;;;;5.47;1.70;;;;;;;25.02;44.75;100975.91;5068218;28;20075;-66
2021/05/30 06:01:34;;;;;;;2.85;1.77;;;;;;;25.14;44.39;100971.84;5067921;28;20399;-66
2021/05/30 06:04:03;;;;;;;4.10;1.80;;;;;;;25.16;44.00;100965.41;5067325;28;20115;-66
2021/05/30 06:06:37;;;;;;;4.78;1.70;;;;;;;25.18;44.12;100976.16;5068341;28;20040;-66
2021/05/30 06:09:08;;;;;;;6.75;1.65;;;;;;;25.41;44.14;100971.53;5068241;28;20051;-66
2021/05/30 06:11:38;;;;;;;4.15;1.48;;;;;;;25.86;43.27;100964.25;5068084;28;20052;-66
2021/05/30 06:14:09;;;;;;;1.95;1.20;;;;;;;26.23;41.94;100961.63;5068077;28;20408;-66
2021/05/30 06:16:37;;;;;;;6.82;1.70;;;;;;;26.15;41.50;100962.00;5067803;28;20527;-66
2021/05/30 06:19:06;;;;;;;4.30;1.90;;;;;;;25.94;40.88;100951.25;5059776;28;20039;-66
2021/05/30 06:21:38;;;;;;;2.25;1.40;;;;;;;25.62;40.99;100945.44;5068553;28;20055;-65
2021/05/30 06:24:06;;;;;;;2.70;1.60;;;;;;;25.40;40.50;100950.00;5066635;28;20519;-66
2021/05/30 06:26:33;;;;;;;4.03;1.95;;;;;;;25.35;40.45;100946.59;5067763;28;20148;-66
2021/05/30 06:29:00;;;;;;;4.38;1.75;;;;;;;25.61;39.91;100956.31;5067909;28;20051;-66
2021/05/30 06:31:28;;;;;;;1.92;1.17;;;;;;;26.30;39.04;100956.84;5068048;28;20102;-66
2021/05/30 06:33:55;;;;;;;3.60;1.58;;;;;;;26.56;37.60;100956.50;5068772;28;20036;-66
2021/05/30 06:36:22;;;;;;;3.40;1.48;;;;;;;26.37;37.96;100971.88;5069005;28;20065;-67
2021/05/30 06:38:49;;;;;;;4.03;1.27;;;;;;;26.18;37.98;100971.81;5068627;28;20115;-67
2021/05/30 06:41:17;;;;;;;2.78;1.33;;;;;;;26.07;38.41;100974.97;5069227;28;20482;-66
2021/05/30 06:43:44;;;;;;;3.85;1.38;;;;;;;25.96;38.86;100982.72;5071880;28;20158;-66
2021/05/30 06:46:12;;;;;;;2.80;1.80;;;;;;;25.95;38.61;100974.66;5072021;28;20144;-66
2021/05/30 06:48:41;;;;;;;5.95;1.63;;;;;;;25.94;38.60;100954.84;5072486;28;20083;-66
2021/05/30 06:51:15;;;;;;;3.78;1.30;;;;;;;25.93;38.60;100944.09;5072549;28;20152;-67
2021/05/30 06:53:46;;;;;;;2.72;1.40;;;;;;;25.94;38.42;100941.31;5072006;28;20036;-67
2021/05/30 06:56:13;;;;;;;3.22;1.40;;;;;;;26.53;37.62;100946.69;5072396;28;20045;-64
2021/05/30 06:58:41;;;;;;;5.28;1.70;;;;;;;26.59;36.97;100945.50;5072493;28;20131;-64
2021/05/30 07:01:08;;;;;;;3.50;1.17;;;;;;;26.35;36.26;100957.50;5071189;28;20055;-64
2021/05/30 07:03:34;;;;;;;4.72;1.85;;;;;;;26.21;36.38;100933.75;5072264;28;20683;-64
2021/05/30 07:06:04;;;;;;;2.60;1.35;;;;;;;26.28;35.55;100934.38;5071972;28;20123;-63
2021/05/30 07:08:31;;;;;;;3.53;1.50;;;;;;;26.77;34.91;100930.22;5072368;28;20062;-66
2021/05/30 07:10:58;;;;;;;2.15;1.20;;;;;;;26.93;34.08;100934.84;5072041;28;20033;-66
2021/05/30 07:13:26;;;;;;;3.22;1.23;;;;;;;26.68;33.79;100936.97;5071729;28;20496;-66
2021/05/30 07:15:53;;;;;;;2.08;1.20;;;;;;;26.59;33.83;100945.50;5071682;28;20533;-67
2021/05/30 07:18:20;;;;;;;5.53;1.33;;;;;;;26.53;34.03;100959.34;5070914;28;20041;-67
2021/05/30 07:20:48;;;;;;;2.72;1.30;;;;;;;26.56;33.85;100961.94;5072191;28;20445;-67
2021/05/30 07:23:17;;;;;;;5.47;1.60;;;;;;;26.65;33.69;100969.59;5072024;28;20044;-66
2021/05/30 07:25:44;;;;;;;3.90;1.15;;;;;;;26.62;33.35;100966.16;5071581;28;20037;-67
2021/05/30 07:28:11;;;;;;;2.40;1.20;;;;;;;26.59;33.35;100970.78;5071461;28;20040;-67
2021/05/30 07:30:38;;;;;;;4.95;1.30;;;;;;;26.49;33.36;100958.63;5071450;28;20037;-67
2021/05/30 07:33:07;;;;;;;3.55;1.30;;;;;;;26.50;32.84;100967.63;5071302;28;20408;-66
2021/05/30 07:35:35;;;;;;;2.20;1.63;;;;;;;26.63;32.60;100966.09;5071236;28;20049;-67
2021/05/30 07:38:03;;;;;;;2.10;1.20;;;;;;;27.03;32.14;100969.63;5071779;28;20036;-66
2021/05/30 07:40:32;;;;;;;4.25;1.33;;;;;;;28.16;30.74;100962.00;5071274;28;20045;-66
2021/05/30 07:43:00;;;;;;;3.33;1.20;;;;;;;28.79;29.65;100972.06;5071402;28;20043;-67
2021/05/30 07:45:28;;;;;;;1.73;1.05;;;;;;;29.12;28.94;100980.13;5071460;28;20052;-67
2021/05/30 07:47:56;;;;;;;2.13;1.17;;;;;;;29.72;28.49;100982.94;5071297;28;20029;-64
2021/05/30 07:50:23;;;;;;;3.58;1.30;;;;;;;29.82;28.31;100985.97;5071407;28;20583;-64
2021/05/30 07:52:50;;;;;;;1.95;0.98;;;;;;;29.81;27.91;100982.34;5071145;28;20037;-64
2021/05/30 07:55:18;;;;;;;1.50;1.00;;;;;;;29.94;27.90;100977.94;5069928;28;20045;-64
2021/05/30 07:57:47;;;;;;;2.30;1.20;;;;;;;30.35;27.56;100978.09;5070678;28;20040;-64
2021/05/30 08:00:17;;;;;;;1.80;1.10;;;;;;;30.10;27.80;100983.34;5071438;28;20119;-64
2021/05/30 08:02:44;;;;;;;2.50;1.10;;;;;;;30.03;27.86;100993.75;5071084;28;20437;-65
2021/05/30 08:05:16;;;;;;;3.35;1.17;;;;;;;30.35;27.84;100991.72;5070920;28;20045;-64
2021/05/30 08:07:43;;;;;;;2.20;0.90;;;;;;;30.57;27.77;100991.28;5071202;28;20040;-64
2021/05/30 08:10:11;;;;;;;3.80;0.80;;;;;;;30.25;27.48;100978.78;5070552;28;20052;-65
2021/05/30 08:12:38;;;;;;;3.20;1.10;;;;;;;29.88;27.52;100961.97;5070694;28;20564;-64
2021/05/30 08:15:08;;;;;;;2.10;1.20;;;;;;;29.75;27.93;100954.63;5070892;28;20385;-64
2021/05/30 08:17:36;;;;;;;3.92;1.38;;;;;;;29.82;28.41;100962.34;5070642;28;20067;-67
2021/05/30 08:20:04;;;;;;;2.72;1.42;;;;;;;29.67;28.49;100964.13;5070742;28;20433;-65
2021/05/30 08:22:32;;;;;;;1.92;0.85;;;;;;;29.94;28.97;100969.78;5070845;28;20090;-65
2021/05/30 08:25:00;;;;;;;2.45;1.17;;;;;;;30.45;29.07;100972.97;5070510;28;20560;-65
2021/05/30 08:27:27;;;;;;;2.25;1.10;;;;;;;30.67;29.25;100970.63;5070115;28;20037;-65
2021/05/30 08:29:55;;;;;;;2.55;1.02;;;;;;;30.55;29.62;100973.25;5070507;28;20446;-65
2021/05/30 08:32:23;;;;;;;1.95;1.15;;;;;;;30.36;29.09;100981.69;5070531;28;20496;-65
2021/05/30 08:34:50;;;;;;;3.08;0.90;;;;;;;30.37;29.12;100988.91;5070443;28;20547;-65
2021/05/30 08:37:18;;;;;;;3.22;1.00;;;;;;;30.51;29.23;100996.25;5070693;28;20084;-65
2021/05/30 08:39:45;;;;;;;2.00;1.00;;;;;;;30.43;28.97;100993.97;5070658;28;20531;-66
2021/05/30 08:42:12;;;;;;;3.55;0.90;;;;;;;30.54;28.91;101005.09;5068550;28;20044;-65
2021/05/30 08:44:40;;;;;;;3.45;0.98;;;;;;;30.56;28.33;100997.69;5068432;28;20111;-65
2021/05/30 08:47:07;;;;;;;1.30;0.90;;;;;;;30.59;27.66;100992.03;5070035;28;20060;-65
2021/05/30 08:49:35;;;;;;;2.50;0.90;;;;;;;30.72;26.88;100976.63;5070315;28;20123;-65
2021/05/30 08:52:02;;;;;;;1.92;1.10;;;;;;;30.03;27.04;100974.66;5069888;28;20086;-65
2021/05/30 08:54:31;;;;;;;1.80;1.00;;;;;;;29.91;26.86;100959.06;5070339;28;20046;-66
2021/05/30 08:56:58;;;;;;;1.52;0.77;;;;;;;30.34;26.75;100964.56;5069856;28;20124;-65
2021/05/30 08:59:29;;;;;;;2.10;0.85;;;;;;;30.62;25.77;100948.25;5069940;28;20131;-65
2021/05/30 09:01:58;;;;;;;5.63;1.10;;;;;;;30.12;26.04;100956.00;5070213;28;20055;-65
2021/05/30 09:04:33;;;;;;;3.72;1.10;;;;;;;30.36;25.72;100966.22;5069940;28;20075;-65
2021/05/30 09:07:02;;;;;;;6.32;1.40;;;;;;;30.59;25.24;100967.50;5069198;28;20037;-65
2021/05/30 09:09:37;;;;;;;5.00;1.10;;;;;;;30.42;24.97;100970.41;5069656;28;20458;-65
2021/05/30 09:12:05;;;;;;;3.53;1.00;;;;;;;30.51;25.48;100975.31;5069550;28;20048;-65
2021/05/30 09:14:44;;;;;;;2.17;1.20;;;;;;;30.65;25.16;100974.44;5069252;28;20057;-65
2021/05/30 09:17:12;;;;;;;4.10;1.40;;;;;;;30.52;25.41;100987.09;5068957;28;20086;-64
2021/05/30 09:19:45;;;;;;;1.75;1.10;;;;;;;30.59;26.35;100986.59;5069502;28;20127;-65
2021/05/30 09:22:18;;;;;;;3.22;0.95;;;;;;;30.56;26.58;100981.34;5069585;28;20119;-65
2021/05/30 09:25:03;;;;;;;1.92;0.98;;;;;;;29.98;27.36;100978.66;5069597;28;20032;-65
2021/05/30 09:27:31;;;;;;;2.10;1.20;;;;;;;29.22;28.15;100975.88;5067972;28;20048;-65
2021/05/30 09:30:42;;;;;;;2.03;0.90;;;;;;;28.68;28.43;100974.47;5068122;28;20044;-65
2021/05/30 09:33:14;;;;;;;6.72;1.90;;;;;;;28.60;28.69;100984.88;5049564;28;20119;-66
2021/05/30 09:36:00;;;;;;;5.00;1.50;;;;;;;29.21;28.07;100976.84;5069287;28;20135;-65
2021/05/30 09:38:35;;;;;;;3.95;1.23;;;;;;;29.45;27.54;100980.03;5069069;28;20040;-65
2021/05/30 09:41:05;;;;;;;1.90;1.00;;;;;;;29.88;27.09;100982.84;5068955;28;20067;-65
2021/05/30 09:43:35;;;;;;;2.72;0.95;;;;;;;30.12;26.42;100981.41;5068943;28;20039;-64
2021/05/30 09:46:08;;;;;;;2.75;1.10;;;;;;;30.36;25.94;100977.13;5068881;28;20067;-64
2021/05/30 09:48:38;;;;;;;4.10;0.93;;;;;;;30.51;25.71;100972.59;5068720;28;20083;-65
2021/05/30 09:51:27;;;;;;;2.40;1.30;;;;;;;30.75;26.23;100970.13;5068719;28;20054;-65
2021/05/30 09:54:01;;;;;;;3.20;1.85;;;;;;;30.73;26.66;100972.06;5068769;28;20037;-65
2021/05/30 09:56:46;;;;;;;4.45;1.08;;;;;;;30.73;26.40;100964.75;5068643;28;20044;-65
2021/05/30 09:59:15;;;;;;;3.35;1.00;;;;;;;30.82;26.54;100956.00;5048894;28;20051;-65
2021/05/30 10:01:54;;;;;;;3.67;1.13;;;;;;;30.88;26.17;100961.03;5048585;28;20053;-65
2021/05/30 10:04:22;;;;;;;2.85;1.17;;;;;;;30.74;26.39;100952.88;5049255;28;20443;-65
2021/05/30 10:06:49;;;;;;;2.63;1.20;;;;;;;30.30;26.77;100953.00;5048942;28;20040;-65
2021/05/30 10:09:17;;;;;;;1.85;0.90;;;;;;;30.37;27.13;100950.75;5048568;28;20167;-65
2021/05/30 10:11:45;;;;;;;3.40;0.95;;;;;;;30.20;27.66;100948.22;5052079;28;20064;-65
2021/05/30 10:14:12;;;;;;;2.17;1.17;;;;;;;29.96;27.88;100943.34;5069278;28;20127;-65
2021/05/30 10:16:40;;;;;;;5.30;1.00;;;;;;;29.92;28.01;100958.13;5068697;28;20403;-65
2021/05/30 10:19:10;;;;;;;1.73;1.30;;;;;;;30.04;28.52;100956.47;5073234;28;20044;-65
2021/05/30 10:21:43;;;;;;;4.28;2.03;;;;;;;30.10;29.69;100956.09;5073283;28;20123;-65
2021/05/30 10:24:11;;;;;;;4.97;1.90;;;;;;;29.86;31.38;100963.03;5071734;28;20162;-65
2021/05/30 10:26:40;;;;;;;4.38;1.55;;;;;;;29.39;32.95;100960.47;5072470;28;20075;-65
2021/05/30 10:29:12;;;;;;;2.33;1.52;;;;;;;29.08;34.45;100967.66;5067855;28;20059;-64
2021/05/30 10:31:42;;;;;;;2.72;1.80;;;;;;;29.01;35.18;100969.00;5061743;28;20037;-65
2021/05/30 10:34:21;;;;;;;3.08;1.58;;;;;;;29.15;35.04;100971.75;5051262;28;20502;-64
2021/05/30 10:37:26;;;;;;;2.88;1.83;;;;;;;29.28;34.35;100972.81;5055508;28;20055;-65
2021/05/30 10:39:55;;;;;;;3.90;2.10;;;;;;;29.52;33.43;100969.66;5039964;28;20037;-65
2021/05/30 10:42:26;;;;;;;2.28;1.30;;;;;;;29.83;32.35;100968.66;5065731;28;20043;-65
2021/05/30 10:45:03;;;;;;;4.95;2.25;;;;;;;29.96;31.95;100959.69;5072454;28;20048;-65
2021/05/30 10:48:19;;;;;;;5.60;2.45;;;;;;;30.10;31.13;100961.53;5072686;28;20403;-65
2021/05/30 10:50:55;;;;;;;;;;;;;;;29.95;31.79;100966.09;5070594;28;20068;-65
2021/05/30 10:53:40;;;;;;;3.60;2.17;;;;;;;29.99;32.35;100961.34;5071983;28;19967;-65
2021/05/30 10:56:15;;;;;;;3.03;1.45;;;;;;;30.13;32.19;100961.34;5072449;28;20032;-65
2021/05/30 10:58:44;;;;;;;4.63;1.92;;;;;;;30.56;31.39;100959.53;5072322;28;20119;-65
2021/05/30 11:01:40;;;;;;;7.72;4.93;;;;;;;30.68;32.02;100958.75;5071459;28;20123;-65
2021/05/30 11:04:43;;;;;;;10.00;6.65;;;;;;;30.70;32.59;100951.34;5061349;28;20040;-66
2021/05/30 11:07:37;;;;;;;5.80;2.50;;;;;;;31.01;32.60;100954.78;5071233;28;20463;-65
2021/05/30 11:10:12;;;;;;;5.07;2.70;;;;;;;30.68;33.77;100952.41;5069910;28;20140;-65
2021/05/30 11:13:02;;;;;;;3.03;1.95;;;;;;;30.61;34.56;100941.03;5071433;28;20060;-64
2021/05/30 11:15:36;;;;;;;6.38;2.80;;;;;;;30.86;34.92;100954.81;5071128;28;20128;-64
2021/05/30 11:18:04;;;;;;;;;;;;;;;31.18;34.88;100947.22;5071240;28;20102;-65
2021/05/30 11:20:49;;;;;;;3.92;2.70;;;;;;;30.75;36.14;100942.88;5070564;28;19928;-64
2021/05/30 11:23:20;;;;;;;5.18;3.00;;;;;;;30.06;37.34;100944.50;5068529;28;20032;-64
2021/05/30 11:25:50;;;;;;;5.75;3.03;;;;;;;30.47;36.60;100944.59;5071546;28;20032;-64
2021/05/30 11:28:19;;;;;;;4.55;2.90;;;;;;;30.36;36.72;100940.81;5071571;28;20040;-64
2021/05/30 11:30:51;;;;;;;4.00;2.13;;;;;;;30.47;36.41;100933.72;5071245;28;20136;-65
2021/05/30 11:33:39;;;;;;;3.35;1.65;;;;;;;30.47;36.13;100930.97;5071719;28;20086;-65
2021/05/30 11:36:09;;;;;;;3.55;1.65;;;;;;;30.58;35.63;100933.06;5071509;28;20123;-64
2021/05/30 11:38:42;;;;;;;3.80;2.17;;;;;;;30.57;35.56;100916.81;5071471;28;20068;-64